createdAt,value
2022-10-29T00:00:55.470Z,99160.84
2022-10-29T00:03:23.068Z,99161.78
2022-10-29T00:06:07.625Z,99160.88
2022-10-29T00:08:36.598Z,99155.56
2022-10-29T00:11:07.315Z,99157.44
2022-10-29T00:13:34.908Z,99166.31
2022-10-29T00:16:05.536Z,99162.03
2022-10-29T00:18:32.001Z,99159.53
2022-10-29T00:21:02.963Z,99155.63
2022-10-29T00:23:29.679Z,99150.69
2022-10-29T00:25:59.944Z,99153.47
2022-10-29T00:28:27.346Z,99149.25
2022-10-29T00:30:53.961Z,99135.31
2022-10-29T00:36:00.817Z,99152.00
2022-10-29T00:38:28.278Z,99149.31
2022-10-29T00:40:55.198Z,99156.91
2022-10-29T00:43:24.469Z,99165.56
2022-10-29T00:46:01.368Z,99170.38
2022-10-29T00:48:31.711Z,99170.28
2022-10-29T00:51:00.859Z,99167.31
2022-10-29T00:53:30.954Z,99166.84
2022-10-29T00:55:58.732Z,99169.94
2022-10-29T00:58:25.655Z,99172.78
2022-10-29T01:00:52.217Z,99163.84
2022-10-29T01:03:18.685Z,99170.78
2022-10-29T01:05:46.536Z,99160.81
2022-10-29T01:08:14.054Z,99160.34
2022-10-29T01:10:49.889Z,99172.50
2022-10-29T01:13:39.590Z,99179.69
2022-10-29T01:16:12.033Z,99176.03
2022-10-29T01:18:55.040Z,99177.88
2022-10-29T01:21:42.726Z,99171.69
2022-10-29T01:24:21.254Z,99167.94
2022-10-29T01:27:04.028Z,99163.47
2022-10-29T01:29:41.275Z,99160.00
2022-10-29T01:32:13.391Z,99156.19
2022-10-29T01:35:03.047Z,99157.09
2022-10-29T01:37:32.354Z,99155.28
2022-10-29T01:40:05.097Z,99149.31
2022-10-29T01:42:34.520Z,99154.69
2022-10-29T01:45:12.238Z,99151.03
2022-10-29T01:47:44.163Z,99149.03
2022-10-29T01:50:15.320Z,99150.50
2022-10-29T01:52:43.112Z,99141.56
2022-10-29T01:55:09.597Z,99136.47
2022-10-29T01:57:38.510Z,99127.25
2022-10-29T02:00:10.306Z,99125.72
2022-10-29T02:03:26.126Z,99126.13
2022-10-29T02:06:27.991Z,99127.84
2022-10-29T02:09:03.464Z,99134.22
2022-10-29T02:11:51.288Z,99132.84
2022-10-29T02:14:23.228Z,99134.91
2022-10-29T02:16:50.232Z,99138.75
2022-10-29T02:19:16.796Z,99139.28
2022-10-29T02:21:45.088Z,99138.00
2022-10-29T02:24:11.905Z,99137.81
2022-10-29T02:26:38.374Z,99143.50
2022-10-29T02:29:04.845Z,99143.66
2022-10-29T02:31:31.382Z,99145.38
2022-10-29T02:33:57.868Z,99140.63
2022-10-29T02:36:24.362Z,99139.09
2022-10-29T02:38:50.860Z,99132.03
2022-10-29T02:41:17.300Z,99134.66
2022-10-29T02:43:43.766Z,99129.50
2022-10-29T02:46:12.150Z,99135.94
2022-10-29T02:48:38.639Z,99126.00
2022-10-29T02:51:05.280Z,99121.09
2022-10-29T02:53:31.824Z,99117.44
2022-10-29T02:55:58.329Z,99114.81
2022-10-29T02:58:24.796Z,99119.28
2022-10-29T03:00:52.360Z,99118.97
2022-10-29T03:03:20.036Z,99119.94
2022-10-29T03:05:49.093Z,99113.63
2022-10-29T03:08:16.082Z,99115.06
2022-10-29T03:10:42.812Z,99117.00
2022-10-29T03:13:09.598Z,99114.81
2022-10-29T03:15:36.830Z,99121.19
2022-10-29T03:18:04.381Z,99118.97
2022-10-29T03:20:31.398Z,99124.44
2022-10-29T03:22:57.862Z,99117.00
2022-10-29T03:25:24.296Z,99111.25
2022-10-29T03:27:51.676Z,99103.97
2022-10-29T03:30:18.265Z,99097.03
2022-10-29T03:32:47.443Z,99102.97
2022-10-29T03:35:15.788Z,99096.50
2022-10-29T03:37:42.265Z,99093.09
2022-10-29T03:40:09.219Z,99102.97
2022-10-29T03:42:35.693Z,99097.72
2022-10-29T03:45:02.640Z,99098.06
2022-10-29T03:47:29.267Z,99094.59
2022-10-29T03:49:55.988Z,99090.81
2022-10-29T03:52:22.428Z,99082.44
2022-10-29T03:54:48.905Z,99089.44
2022-10-29T03:57:15.416Z,99089.63
2022-10-29T03:59:41.873Z,99093.91
2022-10-29T04:02:09.477Z,99090.69
2022-10-29T04:04:36.085Z,99094.44
2022-10-29T04:07:02.511Z,99093.78
2022-10-29T04:09:29.339Z,99091.59
2022-10-29T04:11:55.802Z,99090.78
2022-10-29T04:14:22.434Z,99095.50
2022-10-29T04:16:48.909Z,99093.78
2022-10-29T04:19:15.446Z,99090.25
2022-10-29T04:30:02.796Z,99091.97
2022-10-29T04:32:29.407Z,99093.91
2022-10-29T04:34:55.949Z,99086.41
2022-10-29T04:37:22.379Z,99083.81
2022-10-29T04:39:48.820Z,99078.72
2022-10-29T04:42:15.249Z,99079.66
2022-10-29T04:44:41.729Z,99087.59
2022-10-29T04:47:08.208Z,99097.31
2022-10-29T04:49:34.684Z,99093.91
2022-10-29T04:52:01.129Z,99097.50
2022-10-29T04:54:27.589Z,99101.16
2022-10-29T04:56:54.178Z,99095.84
2022-10-29T04:59:20.641Z,99099.66
2022-10-29T05:01:47.102Z,99093.78
2022-10-29T05:04:13.686Z,99090.19
2022-10-29T05:06:40.262Z,99076.84
2022-10-29T05:09:06.836Z,99069.66
2022-10-29T05:11:33.288Z,99075.50
2022-10-29T05:13:59.739Z,99074.81
2022-10-29T05:16:26.173Z,99070.47
2022-10-29T05:18:52.667Z,99076.78
2022-10-29T05:21:19.186Z,99073.31
2022-10-29T05:23:45.678Z,99079.78
2022-10-29T05:26:12.125Z,99076.16
2022-10-29T05:28:38.620Z,99078.00
2022-10-29T05:31:05.129Z,99076.41
2022-10-29T05:33:31.649Z,99074.19
2022-10-29T05:36:00.985Z,99071.56
2022-10-29T05:38:27.487Z,99071.88
2022-10-29T05:40:53.950Z,99072.09
2022-10-29T05:43:20.402Z,99082.56
2022-10-29T05:45:47.280Z,99073.34
2022-10-29T05:48:13.889Z,99083.03
2022-10-29T05:50:40.656Z,99072.84
2022-10-29T05:53:11.201Z,99076.31
2022-10-29T05:55:38.760Z,99072.84
2022-10-29T05:58:07.543Z,99075.13
2022-10-29T06:00:36.935Z,99062.41
2022-10-29T06:03:03.696Z,99072.25
2022-10-29T06:05:30.393Z,99075.09
2022-10-29T06:07:58.518Z,99069.13
2022-10-29T06:10:26.753Z,99071.44
2022-10-29T06:12:53.249Z,99079.41
2022-10-29T06:15:20.735Z,99071.69
2022-10-29T06:17:47.610Z,99070.81
2022-10-29T06:20:16.088Z,99068.44
2022-10-29T06:22:42.515Z,99072.28
2022-10-29T06:25:10.029Z,99081.09
2022-10-29T06:27:37.156Z,99078.97
2022-10-29T06:30:05.614Z,99080.59
2022-10-29T06:32:32.098Z,99087.81
2022-10-29T06:34:58.620Z,99090.22
2022-10-29T06:37:25.091Z,99085.59
2022-10-29T06:39:51.576Z,99086.25
2022-10-29T06:42:18.084Z,99087.66
2022-10-29T06:44:44.985Z,99082.69
2022-10-29T06:47:11.419Z,99082.06
2022-10-29T06:49:37.925Z,99082.06
2022-10-29T06:52:04.600Z,99086.19
2022-10-29T06:54:31.105Z,99088.66
2022-10-29T06:56:57.594Z,99093.78
2022-10-29T06:59:24.491Z,99083.09
2022-10-29T07:01:51.196Z,99086.59
2022-10-29T07:04:18.500Z,99094.59
2022-10-29T07:06:45.213Z,99090.63
2022-10-29T07:09:11.745Z,99090.56
2022-10-29T07:11:38.235Z,99089.13
2022-10-29T07:14:06.026Z,99094.84
2022-10-29T07:16:32.621Z,99091.41
2022-10-29T07:18:59.173Z,99094.06
2022-10-29T07:21:25.636Z,99094.25
2022-10-29T07:23:52.233Z,99101.19
2022-10-29T07:26:18.810Z,99095.34
2022-10-29T07:28:45.299Z,99096.38
2022-10-29T07:31:11.773Z,99088.81
2022-10-29T07:33:38.264Z,99096.41
2022-10-29T07:36:05.077Z,99094.22
2022-10-29T07:38:31.541Z,99095.44
2022-10-29T07:40:58.077Z,99096.88
2022-10-29T07:43:24.573Z,99095.72
2022-10-29T07:45:52.243Z,99100.41
2022-10-29T07:48:20.283Z,99100.41
2022-10-29T07:50:47.217Z,99101.84
2022-10-29T07:53:14.253Z,99106.13
2022-10-29T07:55:40.784Z,99101.00
2022-10-29T07:58:11.232Z,99092.81
2022-10-29T08:00:39.858Z,99096.91
2022-10-29T08:03:06.813Z,99099.97
2022-10-29T08:05:33.394Z,99103.03
2022-10-29T08:08:00.453Z,99102.63
2022-10-29T08:10:27.718Z,99103.84
2022-10-29T08:12:57.246Z,99110.09
2022-10-29T08:15:25.570Z,99115.81
2022-10-29T08:17:52.444Z,99111.84
2022-10-29T08:20:19.679Z,99113.25
2022-10-29T08:22:46.437Z,99110.16
2022-10-29T08:25:14.129Z,99112.44
2022-10-29T08:27:40.702Z,99112.31
2022-10-29T08:30:09.174Z,99120.06
2022-10-29T08:32:35.905Z,99119.44
2022-10-29T08:35:03.475Z,99108.91
2022-10-29T08:37:29.972Z,99108.16
2022-10-29T08:39:56.430Z,99108.38
2022-10-29T08:42:30.610Z,99102.06
2022-10-29T08:45:20.722Z,99112.00
2022-10-29T08:47:55.834Z,99103.66
2022-10-29T08:50:29.737Z,99105.56
2022-10-29T08:53:19.417Z,99104.31
2022-10-29T08:55:45.098Z,99097.13
2022-10-29T08:58:24.162Z,99098.38
2022-10-29T09:00:55.731Z,99099.94
2022-10-29T09:03:22.777Z,99098.28
2022-10-29T09:05:53.353Z,99099.19
2022-10-29T09:08:48.480Z,99096.69
2022-10-29T09:11:48.674Z,99089.66
2022-10-29T09:14:35.947Z,99091.31
2022-10-29T09:17:58.410Z,99079.53
2022-10-29T09:21:09.087Z,99082.44
2022-10-29T09:23:54.592Z,99075.50
2022-10-29T09:26:31.476Z,99069.94
2022-10-29T09:29:25.859Z,99075.13
2022-10-29T09:31:59.804Z,99072.03
2022-10-29T09:34:34.163Z,99073.84
2022-10-29T09:37:00.928Z,99060.28
2022-10-29T09:39:36.956Z,99050.31
2022-10-29T09:42:11.015Z,99052.31
2022-10-29T09:44:57.965Z,99054.47
2022-10-29T09:47:54.316Z,99046.44
2022-10-29T09:50:39.819Z,99043.88
2022-10-29T09:53:08.031Z,99042.59
2022-10-29T09:55:45.939Z,99034.19
2022-10-29T09:58:30.445Z,99035.47
2022-10-29T10:00:57.194Z,99030.06
2022-10-29T10:03:26.620Z,99031.66
2022-10-29T10:06:00.669Z,99030.56
2022-10-29T10:08:27.550Z,99033.81
2022-10-29T10:10:57.179Z,99037.50
2022-10-29T10:13:27.784Z,99029.28
2022-10-29T10:15:59.968Z,99028.53
2022-10-29T10:18:32.702Z,99026.63
2022-10-29T10:21:01.264Z,99025.28
2022-10-29T10:23:29.193Z,99019.63
2022-10-29T10:26:03.708Z,99014.28
2022-10-29T10:28:35.388Z,99009.00
2022-10-29T10:31:08.318Z,99003.78
2022-10-29T10:33:37.205Z,99001.88
2022-10-29T10:36:09.107Z,98993.84
2022-10-29T10:38:44.848Z,98999.56
2022-10-29T10:41:13.683Z,98989.84
2022-10-29T10:43:45.697Z,98992.84
2022-10-29T10:46:26.690Z,98989.50
2022-10-29T10:48:58.793Z,98986.53
2022-10-29T10:51:33.954Z,98982.09
2022-10-29T10:54:03.798Z,98983.00
2022-10-29T10:56:30.770Z,98966.72
2022-10-29T10:59:14.515Z,98974.31
2022-10-29T11:01:46.281Z,98955.31
2022-10-29T11:04:12.983Z,98969.53
2022-10-29T11:06:43.616Z,98966.69
2022-10-29T11:09:31.734Z,98951.84
2022-10-29T11:12:08.846Z,98955.59
2022-10-29T11:14:42.989Z,98954.00
2022-10-29T11:17:28.282Z,98955.84
2022-10-29T11:19:59.461Z,98952.06
2022-10-29T11:22:45.703Z,98960.69
2022-10-29T11:25:25.056Z,98949.69
2022-10-29T11:27:59.677Z,98937.00
2022-10-29T11:30:29.856Z,98935.75
2022-10-29T11:33:17.014Z,98935.53
2022-10-29T11:36:09.357Z,98926.94
2022-10-29T11:38:43.815Z,98924.81
2022-10-29T11:41:25.608Z,98915.28
2022-10-29T11:43:52.202Z,98920.41
2022-10-29T11:46:43.899Z,98912.63
2022-10-29T11:49:33.442Z,98913.59
2022-10-29T11:52:09.063Z,98905.66
2022-10-29T11:55:05.921Z,98901.81
2022-10-29T11:57:59.868Z,98898.84
2022-10-29T12:00:32.238Z,98905.59
2022-10-29T12:03:40.993Z,98891.63
2022-10-29T12:06:17.330Z,98891.88
2022-10-29T12:09:08.419Z,98891.38
2022-10-29T12:11:44.990Z,98895.69
2022-10-29T12:14:40.008Z,98890.44
2022-10-29T12:17:21.670Z,98882.84
2022-10-29T12:20:33.988Z,98876.91
2022-10-29T12:23:15.669Z,98875.56
2022-10-29T12:25:50.638Z,98865.03
2022-10-29T12:28:48.098Z,98859.28
2022-10-29T12:31:53.104Z,98856.00
2022-10-29T12:34:30.280Z,98865.59
2022-10-29T12:37:20.971Z,98859.72
2022-10-29T12:39:51.732Z,98863.06
2022-10-29T12:42:30.378Z,98860.44
2022-10-29T12:45:13.596Z,98850.75
2022-10-29T12:47:52.581Z,98853.16
2022-10-29T12:50:37.366Z,98854.28
2022-10-29T12:53:22.822Z,98848.88
2022-10-29T12:55:50.143Z,98852.31
2022-10-29T12:58:50.756Z,98838.03
2022-10-29T13:01:38.241Z,98839.09
2022-10-29T13:04:29.860Z,98836.91
2022-10-29T13:07:04.088Z,98832.63
2022-10-29T13:09:35.967Z,98833.38
2022-10-29T13:12:13.487Z,98836.91
2022-10-29T13:14:52.604Z,98832.25
2022-10-29T13:17:37.171Z,98835.47
2022-10-29T13:20:17.587Z,98831.84
2022-10-29T13:22:47.013Z,98832.56
2022-10-29T13:25:42.201Z,98835.75
2022-10-29T13:28:08.657Z,98840.75
2022-10-29T13:30:58.000Z,98845.63
2022-10-29T13:33:27.467Z,98845.75
2022-10-29T13:36:16.660Z,98849.00
2022-10-29T13:39:04.330Z,98845.91
2022-10-29T13:41:44.629Z,98837.84
2022-10-29T13:44:19.413Z,98835.16
2022-10-29T13:47:05.303Z,98831.25
2022-10-29T13:49:38.173Z,98832.25
2022-10-29T13:52:13.783Z,98831.84
2022-10-29T13:54:47.054Z,98823.69
2022-10-29T13:57:13.433Z,98823.31
2022-10-29T13:59:45.503Z,98830.13
2022-10-29T14:02:26.969Z,98820.88
2022-10-29T14:05:05.922Z,98814.91
2022-10-29T14:07:43.262Z,98823.03
2022-10-29T14:10:22.215Z,98818.50
2022-10-29T14:12:54.016Z,98820.00
2022-10-29T14:15:20.789Z,98828.47
2022-10-29T14:17:47.232Z,98812.03
2022-10-29T14:20:28.329Z,98817.03
2022-10-29T14:22:55.498Z,98823.38
2022-10-29T14:25:25.164Z,98819.09
2022-10-29T14:28:18.153Z,98826.03
2022-10-29T14:30:46.510Z,98810.78
2022-10-29T14:33:22.599Z,98816.03
2022-10-29T14:35:49.325Z,98820.91
2022-10-29T14:38:16.806Z,98814.31
2022-10-29T14:40:46.400Z,98821.38
2022-10-29T14:43:23.950Z,98815.28
2022-10-29T14:45:50.923Z,98824.81
2022-10-29T14:48:18.824Z,98816.38
2022-10-29T14:50:50.860Z,98822.47
2022-10-29T14:53:34.632Z,98822.81
2022-10-29T14:56:09.070Z,98821.75
2022-10-29T14:58:36.781Z,98824.81
2022-10-29T15:01:12.151Z,98824.84
2022-10-29T15:03:38.751Z,98821.34
2022-10-29T15:06:18.219Z,98821.66
2022-10-29T15:08:46.154Z,98818.66
2022-10-29T15:11:38.469Z,98814.53
2022-10-29T15:14:30.996Z,98816.00
2022-10-29T15:16:58.839Z,98822.31
2022-10-29T15:19:25.750Z,98821.81
2022-10-29T15:21:52.432Z,98822.44
2022-10-29T15:24:23.239Z,98822.84
2022-10-29T15:26:56.496Z,98823.03
2022-10-29T15:29:33.485Z,98812.53
2022-10-29T15:32:00.744Z,98812.53
2022-10-29T15:34:37.349Z,98808.09
2022-10-29T15:37:19.022Z,98815.69
2022-10-29T15:40:00.127Z,98812.75
2022-10-29T15:42:29.903Z,98815.28
2022-10-29T15:45:08.391Z,98808.41
2022-10-29T15:47:37.049Z,98812.25
2022-10-29T15:50:06.316Z,98810.84
2022-10-29T15:52:53.110Z,98816.84
2022-10-29T15:55:31.840Z,98823.13
2022-10-29T15:58:04.735Z,98817.94
2022-10-29T16:00:31.947Z,98828.63
2022-10-29T16:03:13.959Z,98822.31
2022-10-29T16:05:41.837Z,98827.81
2022-10-29T16:08:20.041Z,98821.97
2022-10-29T16:10:46.524Z,98824.03
2022-10-29T16:13:13.108Z,98834.09
2022-10-29T16:15:43.154Z,98829.81
2022-10-29T16:18:11.015Z,98827.97
2022-10-29T16:20:37.652Z,98822.84
2022-10-29T16:23:04.308Z,98823.97
2022-10-29T16:25:30.959Z,98823.63
2022-10-29T16:27:57.687Z,98821.16
2022-10-29T16:30:24.604Z,98820.78
2022-10-29T16:32:52.353Z,98821.69
2022-10-29T16:35:23.941Z,98819.25
2022-10-29T16:37:51.717Z,98824.47
2022-10-29T16:40:20.243Z,98824.03
2022-10-29T16:42:47.093Z,98822.44
2022-10-29T16:45:19.767Z,98827.25
2022-10-29T16:47:46.414Z,98824.25
2022-10-29T16:50:24.751Z,98819.53
2022-10-29T16:53:06.579Z,98820.41
2022-10-29T16:55:35.905Z,98821.75
2022-10-29T16:58:02.563Z,98827.78
2022-10-29T17:00:33.092Z,98829.25
2022-10-29T17:03:04.774Z,98825.59
2022-10-29T17:05:42.415Z,98818.53
2022-10-29T17:08:09.295Z,98825.66
2022-10-29T17:10:36.521Z,98825.38
2022-10-29T17:13:04.210Z,98820.84
2022-10-29T17:15:30.688Z,98820.94
2022-10-29T17:17:57.493Z,98825.84
2022-10-29T17:20:24.217Z,98827.94
2022-10-29T17:22:52.865Z,98819.66
2022-10-29T17:25:19.338Z,98824.50
2022-10-29T17:27:45.843Z,98835.03
2022-10-29T17:30:12.556Z,98831.56
2022-10-29T17:32:39.089Z,98840.06
2022-10-29T17:35:05.961Z,98836.41
2022-10-29T17:37:33.236Z,98839.47
2022-10-29T17:40:03.175Z,98832.16
2022-10-29T17:42:33.634Z,98834.59
2022-10-29T17:45:00.087Z,98841.56
2022-10-29T17:47:26.611Z,98844.63
2022-10-29T17:49:53.360Z,98838.44
2022-10-29T17:52:19.818Z,98839.75
2022-10-29T17:54:46.241Z,98844.16
2022-10-29T17:57:12.765Z,98845.16
2022-10-29T17:59:39.237Z,98845.13
2022-10-29T18:02:05.869Z,98840.16
2022-10-29T18:04:32.372Z,98846.81
2022-10-29T18:06:58.836Z,98848.06
2022-10-29T18:09:25.265Z,98845.31
2022-10-29T18:11:51.757Z,98845.94
2022-10-29T18:14:18.292Z,98841.41
2022-10-29T18:16:45.789Z,98850.44
2022-10-29T18:19:12.330Z,98860.47
2022-10-29T18:21:38.922Z,98852.38
2022-10-29T18:24:05.848Z,98863.88
2022-10-29T18:26:35.012Z,98859.19
2022-10-29T18:29:12.128Z,98849.19
2022-10-29T18:31:40.207Z,98858.78
2022-10-29T18:34:07.678Z,98860.63
2022-10-29T18:36:37.714Z,98854.69
2022-10-29T18:39:05.393Z,98856.09
2022-10-29T18:41:32.476Z,98861.25
2022-10-29T18:43:59.256Z,98857.78
2022-10-29T18:46:26.241Z,98859.63
2022-10-29T18:48:53.223Z,98855.66
2022-10-29T18:51:21.597Z,98858.66
2022-10-29T18:53:48.085Z,98851.38
2022-10-29T18:56:16.890Z,98857.31
2022-10-29T18:58:44.214Z,98860.41
2022-10-29T19:01:13.432Z,98857.59
2022-10-29T19:03:40.731Z,98856.81
2022-10-29T19:06:10.320Z,98863.72
2022-10-29T19:08:38.438Z,98859.19
2022-10-29T19:11:07.680Z,98862.03
2022-10-29T19:13:34.645Z,98863.28
2022-10-29T19:16:09.716Z,98865.75
2022-10-29T19:18:37.484Z,98863.50
2022-10-29T19:21:15.903Z,98864.91
2022-10-29T19:23:42.788Z,98862.88
2022-10-29T19:26:12.601Z,98863.28
2022-10-29T19:28:39.733Z,98859.81
2022-10-29T19:31:11.892Z,98867.19
2022-10-29T19:33:38.445Z,98866.81
2022-10-29T19:36:06.559Z,98862.50
2022-10-29T19:38:33.433Z,98869.66
2022-10-29T19:41:00.808Z,98864.75
2022-10-29T19:43:31.162Z,98865.34
2022-10-29T19:45:57.802Z,98866.13
2022-10-29T19:48:24.928Z,98863.31
2022-10-29T19:50:56.504Z,98869.41
2022-10-29T19:53:24.831Z,98863.09
2022-10-29T19:55:52.337Z,98865.56
2022-10-29T19:58:19.844Z,98860.47
2022-10-29T20:00:46.697Z,98864.56
2022-10-29T20:03:14.390Z,98858.63
2022-10-29T20:05:41.465Z,98854.16
2022-10-29T20:08:11.394Z,98858.03
2022-10-29T20:10:41.417Z,98857.44
2022-10-29T20:13:07.919Z,98848.03
2022-10-29T20:15:34.431Z,98848.81
2022-10-29T20:18:01.085Z,98851.88
2022-10-29T20:20:27.671Z,98849.63
2022-10-29T20:22:54.527Z,98853.09
2022-10-29T20:25:24.217Z,98853.69
2022-10-29T20:27:50.951Z,98862.91
2022-10-29T20:30:18.026Z,98856.34
2022-10-29T20:32:45.304Z,98861.28
2022-10-29T20:35:11.748Z,98863.53
2022-10-29T20:37:38.301Z,98858.03
2022-10-29T20:40:05.590Z,98857.03
2022-10-29T20:42:32.227Z,98859.28
2022-10-29T20:44:58.741Z,98856.22
2022-10-29T20:47:25.273Z,98860.09
2022-10-29T20:49:51.757Z,98852.75
2022-10-29T20:52:18.441Z,98853.56
2022-10-29T20:54:44.982Z,98856.63
2022-10-29T20:57:11.615Z,98856.81
2022-10-29T20:59:38.079Z,98856.00
2022-10-29T21:02:04.727Z,98853.97
2022-10-29T21:04:31.260Z,98862.53
2022-10-29T21:06:57.717Z,98859.47
2022-10-29T21:09:24.252Z,98859.47
2022-10-29T21:11:50.732Z,98857.22
2022-10-29T21:14:17.177Z,98867.63
2022-10-29T21:16:44.044Z,98862.72
2022-10-29T21:19:10.511Z,98866.41
2022-10-29T21:21:37.050Z,98863.34
2022-10-29T21:24:03.793Z,98861.28
2022-10-29T21:26:30.283Z,98864.53
2022-10-29T21:28:57.266Z,98861.88
2022-10-29T21:31:24.280Z,98865.16
2022-10-29T21:33:54.614Z,98869.63
2022-10-29T21:36:21.586Z,98858.84
2022-10-29T21:38:48.448Z,98860.66
2022-10-29T21:41:15.452Z,98865.56
2022-10-29T21:43:41.959Z,98860.22
2022-10-29T21:46:08.517Z,98862.69
2022-10-29T21:48:35.549Z,98868.66
2022-10-29T21:51:20.978Z,98867.81
2022-10-29T21:53:47.428Z,98862.91
2022-10-29T21:56:15.000Z,98859.63
2022-10-29T21:58:41.947Z,98861.66
2022-10-29T22:01:14.177Z,98860.84
2022-10-29T22:03:42.378Z,98860.03
2022-10-29T22:06:20.690Z,98861.50
2022-10-29T22:08:51.869Z,98863.75
2022-10-29T22:11:18.307Z,98859.03
2022-10-29T22:13:44.860Z,98860.66
2022-10-29T22:16:11.613Z,98858.00
2022-10-29T22:18:38.674Z,98858.78
2022-10-29T22:21:12.491Z,98855.94
2022-10-29T22:23:47.557Z,98855.16
2022-10-29T22:26:16.073Z,98860.09
2022-10-29T22:28:42.818Z,98857.41
2022-10-29T22:31:09.612Z,98854.97
2022-10-29T22:33:36.379Z,98861.50
2022-10-29T22:36:05.201Z,98855.94
2022-10-29T22:38:31.699Z,98857.78
2022-10-29T22:40:58.168Z,98857.59
2022-10-29T22:43:24.643Z,98862.28
2022-10-29T22:45:51.105Z,98854.09
2022-10-29T22:48:17.579Z,98852.44
2022-10-29T22:50:44.029Z,98850.59
2022-10-29T22:53:10.602Z,98856.13
2022-10-29T22:55:37.069Z,98850.22
2022-10-29T22:58:03.551Z,98847.50
2022-10-29T23:00:30.021Z,98857.06
2022-10-29T23:02:56.803Z,98851.22
2022-10-29T23:05:23.549Z,98845.63
2022-10-29T23:07:50.050Z,98854.28
2022-10-29T23:10:16.520Z,98852.72
2022-10-29T23:12:42.944Z,98851.34
2022-10-29T23:15:09.647Z,98842.59
2022-10-29T23:17:36.109Z,98842.19
2022-10-29T23:20:02.755Z,98849.34
2022-10-29T23:22:29.205Z,98841.41
2022-10-29T23:24:55.662Z,98849.78
2022-10-29T23:27:22.092Z,98845.66
2022-10-29T23:29:48.593Z,98844.44
2022-10-29T23:32:15.051Z,98836.69
2022-10-29T23:34:41.635Z,98841.56
2022-10-29T23:37:09.983Z,98839.31
2022-10-29T23:39:37.091Z,98835.75
2022-10-29T23:42:03.683Z,98840.44
2022-10-29T23:44:30.177Z,98840.00
2022-10-29T23:46:56.633Z,98836.75
2022-10-29T23:49:23.179Z,98834.31
2022-10-29T23:51:49.626Z,98837.94
2022-10-29T23:54:16.075Z,98836.81
2022-10-29T23:56:42.496Z,98841.88
2022-10-29T23:59:08.969Z,98833.59
